In Rescue
 
Open Full Screen Window  High Contrast Mode
Wind Gusting 00 knots
03
May 25, 2022 8:56 PM EDT
Weather Information
Wind Direction
  170 °
Wind Speed
  03 kt (3 mph)
Wind Gust
  00 kt (0 mph)
Altimeter
29.96 in
Visibility
10 SM
Temperature
22° C
72° F
Dewpoint
21° C
70° F
Humidity
94%
1hr Rain Fall
00.08 in.
24hr Rain Fall
00.08 in.
Sky Condition
Overcast @ 11,000 ft
Broken @ 8,500 ft
Scattered @ 2,700 ft
VFR

METAR KI69 260056Z AUTO 17003KT 10SM SCT027 BKN085 OVC110 22/21 A2996 RMK AO2 T02210205 P0008

FAA Disclaimer: The data displayed is for advisory purposes only and is not to be used for flight planning or operations.